Time;durP1;ratioP1;P1;durP2;ratioP2;P2;SDS_P1;SDS_P2;PMS_P1;PMS_P2;Temp;Humidity;BMP_temperature;BMP_pressure;BME280_temperature;BME280_humidity;BME280_pressure;Samples;Min_cycle;Max_cycle;Signal;HPM_P1;HPM_P2
2022/01/03 00:01:03;;;;;;;9.18;2.53;;;;;;;;;;4885964;29;20045;-61
2022/01/03 00:03:29;;;;;;;6.00;2.47;;;;;;;;;;4885302;29;20586;-56
2022/01/03 00:05:55;;;;;;;6.55;1.75;;;;;;;;;;4885927;29;20053;-57
2022/01/03 00:08:21;;;;;;;9.63;2.10;;;;;;;;;;4885195;29;20140;-57
2022/01/03 00:10:47;;;;;;;7.50;2.13;;;;;;;;;;4886318;29;20517;-58
2022/01/03 00:13:13;;;;;;;5.43;2.00;;;;;;;;;;4886725;29;20041;-57
2022/01/03 00:15:38;;;;;;;12.07;1.90;;;;;;;;;;4884999;29;20040;-57
2022/01/03 00:18:04;;;;;;;4.13;1.83;;;;;;;;;;4885540;29;20041;-57
2022/01/03 00:20:30;;;;;;;5.60;2.22;;;;;;;;;;4885139;29;21033;-57
2022/01/03 00:23:03;;;;;;;6.05;2.28;;;;;;;;;;4885264;29;20140;-57
2022/01/03 00:25:29;;;;;;;2.53;0.82;;;;;;;;;;4883665;29;20053;-56
2022/01/03 00:27:57;;;;;;;3.78;1.55;;;;;;;;;;4884522;29;20045;-57
2022/01/03 00:30:24;;;;;;;5.25;1.60;;;;;;;;;;4885007;29;20131;-54
2022/01/03 00:32:51;;;;;;;2.55;0.90;;;;;;;;;;4885352;29;20115;-57
2022/01/03 00:35:18;;;;;;;1.95;0.70;;;;;;;;;;4884796;29;20355;-57
2022/01/03 00:37:45;;;;;;;2.58;0.80;;;;;;;;;;4884822;29;20505;-56
2022/01/03 00:40:11;;;;;;;1.50;0.57;;;;;;;;;;4885976;29;20045;-54
2022/01/03 00:42:37;;;;;;;2.90;0.77;;;;;;;;;;4884311;29;20048;-56
2022/01/03 00:45:04;;;;;;;3.78;1.00;;;;;;;;;;4884383;29;20051;-57
2022/01/03 00:47:33;;;;;;;5.13;0.93;;;;;;;;;;4884772;29;20124;-54
2022/01/03 00:50:03;;;;;;;1.90;0.75;;;;;;;;;;4885225;29;20225;-56
2022/01/03 00:52:29;;;;;;;3.65;0.90;;;;;;;;;;4884720;29;20072;-56
2022/01/03 00:54:55;;;;;;;3.08;0.90;;;;;;;;;;4884431;29;20500;-57
2022/01/03 00:57:37;;;;;;;3.67;0.90;;;;;;;;;;4883670;29;20048;-57
2022/01/03 01:00:06;;;;;;;2.78;0.82;;;;;;;;;;4885892;29;20036;-55
2022/01/03 01:02:36;;;;;;;1.48;0.55;;;;;;;;;;4884277;29;20036;-56
2022/01/03 01:05:03;;;;;;;3.40;1.00;;;;;;;;;;4883498;29;20052;-57
2022/01/03 01:07:30;;;;;;;4.43;0.88;;;;;;;;;;4884728;29;20130;-55
2022/01/03 01:09:59;;;;;;;2.70;1.00;;;;;;;;;;4886618;29;20060;-57
2022/01/03 01:12:25;;;;;;;2.83;1.05;;;;;;;;;;4884361;29;20451;-58
2022/01/03 01:14:51;;;;;;;3.65;1.30;;;;;;;;;;4883573;29;20044;-57
2022/01/03 01:17:17;;;;;;;3.47;1.30;;;;;;;;;;4884598;29;20040;-56
2022/01/03 01:19:43;;;;;;;3.85;1.33;;;;;;;;;;4885564;29;20048;-57
2022/01/03 01:22:09;;;;;;;3.30;1.40;;;;;;;;;;4884372;29;20037;-57
2022/01/03 01:24:49;;;;;;;4.13;1.73;;;;;;;;;;4884380;29;20386;-58
2022/01/03 01:29:59;;;;;;;6.60;2.70;;;;;;;;;;4884613;29;20060;-58
2022/01/03 01:32:25;;;;;;;5.43;2.67;;;;;;;;;;4884778;29;20056;-57
2022/01/03 01:34:52;;;;;;;7.30;3.47;;;;;;;;;;4882707;29;20124;-56
2022/01/03 01:37:22;;;;;;;6.32;3.25;;;;;;;;;;4883389;29;20047;-56
2022/01/03 01:39:51;;;;;;;4.60;2.40;;;;;;;;;;4884274;29;20078;-57
2022/01/03 01:42:17;;;;;;;11.20;5.85;;;;;;;;;;4883678;29;20083;-58
2022/01/03 01:44:48;;;;;;;5.18;2.47;;;;;;;;;;4882097;29;20039;-58
2022/01/03 01:47:14;;;;;;;13.70;6.65;;;;;;;;;;4884234;29;20032;-58
2022/01/03 01:49:46;;;;;;;14.32;8.57;;;;;;;;;;4884726;29;20088;-56
2022/01/03 01:52:20;;;;;;;6.10;3.15;;;;;;;;;;4884481;29;20490;-56
2022/01/03 01:54:45;;;;;;;;;;;;;;;;;;4882670;29;20518;-57
2022/01/03 01:57:11;;;;;;;7.20;3.65;;;;;;;;;;4883941;29;19968;-57
2022/01/03 01:59:37;;;;;;;11.38;6.00;;;;;;;;;;4884432;29;20099;-55
2022/01/03 02:02:07;;;;;;;9.07;4.38;;;;;;;;;;4884188;29;20272;-54
2022/01/03 02:04:48;;;;;;;9.73;4.68;;;;;;;;;;4882629;29;20099;-57
2022/01/03 02:07:34;;;;;;;15.55;7.70;;;;;;;;;;4884013;29;20068;-57
2022/01/03 02:10:10;;;;;;;9.75;4.78;;;;;;;;;;4884281;29;20100;-56
2022/01/03 02:12:37;;;;;;;12.20;5.57;;;;;;;;;;4883981;29;20060;-57
2022/01/03 02:15:04;;;;;;;5.68;2.90;;;;;;;;;;4882236;29;20055;-57
2022/01/03 02:17:30;;;;;;;11.02;6.90;;;;;;;;;;4883764;29;20119;-56
2022/01/03 02:20:05;;;;;;;13.30;6.70;;;;;;;;;;4884168;29;20044;-56
2022/01/03 02:22:31;;;;;;;7.53;4.32;;;;;;;;;;4883391;29;20049;-57
2022/01/03 02:24:57;;;;;;;10.32;6.72;;;;;;;;;;4882108;29;20032;-57
2022/01/03 02:27:23;;;;;;;10.20;5.75;;;;;;;;;;4883126;29;20080;-57
2022/01/03 02:29:49;;;;;;;4.15;1.80;;;;;;;;;;4883409;29;20625;-56
2022/01/03 02:32:15;;;;;;;5.18;3.15;;;;;;;;;;4884050;29;20036;-53
2022/01/03 02:34:44;;;;;;;7.90;4.30;;;;;;;;;;4878486;29;20139;-55
2022/01/03 02:37:18;;;;;;;10.27;4.85;;;;;;;;;;4996735;28;20382;-56
2022/01/03 02:39:44;;;;;;;10.07;5.68;;;;;;;;;;4991765;28;20042;-56
2022/01/03 02:42:10;;;;;;;13.43;6.88;;;;;;;;;;4994111;28;20080;-53
2022/01/03 02:44:36;;;;;;;6.75;3.38;;;;;;;;;;4990253;28;20052;-53
2022/01/03 02:47:02;;;;;;;14.82;7.13;;;;;;;;;;4993812;28;20407;-56
2022/01/03 02:49:28;;;;;;;12.02;5.20;;;;;;;;;;4983916;28;20483;-56
2022/01/03 02:51:53;;;;;;;13.73;4.35;;;;;;;;;;4985574;28;20187;-55
2022/01/03 02:54:19;;;;;;;11.15;4.90;;;;;;;;;;4991443;28;20041;-55
2022/01/03 02:56:45;;;;;;;7.15;3.38;;;;;;;;;;4993554;28;20050;-57
2022/01/03 02:59:14;;;;;;;9.75;6.20;;;;;;;;;;4994000;28;20117;-59
2022/01/03 03:01:41;;;;;;;7.55;4.13;;;;;;;;;;4989069;28;20145;-57
2022/01/03 03:04:08;;;;;;;8.10;3.90;;;;;;;;;;4988050;28;20133;-57
2022/01/03 03:06:33;;;;;;;6.03;3.83;;;;;;;;;;4976619;28;20047;-56
2022/01/03 03:09:04;;;;;;;9.27;4.43;;;;;;;;;;4992924;28;20092;-57
2022/01/03 03:11:31;;;;;;;15.23;4.78;;;;;;;;;;4991794;28;20700;-58
2022/01/03 03:13:57;;;;;;;12.85;6.00;;;;;;;;;;4987450;28;20097;-57
2022/01/03 03:16:23;;;;;;;16.35;7.47;;;;;;;;;;4989753;28;20390;-56
2022/01/03 03:18:49;;;;;;;6.35;3.65;;;;;;;;;;4986374;28;20044;-57
2022/01/03 03:21:15;;;;;;;12.40;8.05;;;;;;;;;;4983081;28;20034;-56
2022/01/03 03:23:41;;;;;;;5.55;3.15;;;;;;;;;;4994359;28;20056;-54
2022/01/03 03:26:08;;;;;;;7.40;3.75;;;;;;;;;;4985495;28;20043;-57
2022/01/03 03:28:34;;;;;;;6.10;3.65;;;;;;;;;;4991232;28;20049;-56
2022/01/03 03:31:00;;;;;;;8.25;4.07;;;;;;;;;;4993818;28;20038;-56
2022/01/03 03:33:29;;;;;;;10.57;6.20;;;;;;;;;;4984196;28;20049;-56
2022/01/03 03:35:55;;;;;;;16.55;9.90;;;;;;;;;;4984153;28;20054;-56
2022/01/03 03:38:25;;;;;;;7.18;3.80;;;;;;;;;;4990699;28;20045;-57
2022/01/03 03:40:55;;;;;;;13.85;9.05;;;;;;;;;;4990600;28;20586;-57
2022/01/03 03:43:21;;;;;;;10.68;6.35;;;;;;;;;;4992247;28;20076;-57
2022/01/03 03:45:48;;;;;;;14.57;8.40;;;;;;;;;;4990444;28;20042;-57
2022/01/03 03:48:14;;;;;;;11.57;5.63;;;;;;;;;;4970800;28;20114;-57
2022/01/03 03:50:40;;;;;;;15.35;4.82;;;;;;;;;;4981390;28;20038;-55
2022/01/03 03:53:06;;;;;;;9.80;5.72;;;;;;;;;;4982458;28;20057;-55
2022/01/03 03:55:32;;;;;;;14.07;8.85;;;;;;;;;;4971715;28;20054;-56
2022/01/03 03:57:59;;;;;;;9.38;5.97;;;;;;;;;;4979698;28;20038;-56
2022/01/03 04:00:25;;;;;;;8.38;4.45;;;;;;;;;;4980207;28;20045;-56
2022/01/03 04:02:51;;;;;;;7.35;4.18;;;;;;;;;;4980819;28;20077;-55
2022/01/03 04:05:16;;;;;;;16.13;8.68;;;;;;;;;;4981861;28;20189;-55
2022/01/03 04:07:42;;;;;;;14.75;6.28;;;;;;;;;;4971603;28;20049;-55
2022/01/03 04:10:10;;;;;;;9.27;4.88;;;;;;;;;;4981507;28;20039;-56
2022/01/03 04:12:36;;;;;;;4.22;2.08;;;;;;;;;;4971783;28;21725;-55
2022/01/03 04:15:03;;;;;;;6.03;3.92;;;;;;;;;;4979939;28;20463;-53
2022/01/03 04:17:28;;;;;;;10.32;3.45;;;;;;;;;;4981110;28;20045;-54
2022/01/03 04:19:54;;;;;;;11.85;3.70;;;;;;;;;;4976540;28;20050;-55
2022/01/03 04:22:20;;;;;;;8.27;2.90;;;;;;;;;;4979426;28;20502;-55
2022/01/03 04:24:46;;;;;;;7.03;3.17;;;;;;;;;;4980785;28;20181;-54
2022/01/03 04:27:12;;;;;;;7.13;3.30;;;;;;;;;;4968854;28;20043;-55
2022/01/03 04:29:38;;;;;;;8.50;3.60;;;;;;;;;;4969983;28;20049;-56
2022/01/03 04:32:04;;;;;;;21.95;6.68;;;;;;;;;;4971603;28;21811;-56
2022/01/03 04:34:29;;;;;;;7.97;3.15;;;;;;;;;;4976762;28;20035;-56
2022/01/03 04:36:55;;;;;;;11.85;6.78;;;;;;;;;;4965558;28;20177;-55
2022/01/03 04:39:21;;;;;;;9.07;5.03;;;;;;;;;;4968381;28;20499;-54
2022/01/03 04:41:47;;;;;;;12.15;4.63;;;;;;;;;;4968990;28;20058;-56
2022/01/03 04:44:13;;;;;;;10.63;5.97;;;;;;;;;;4976860;28;20115;-56
2022/01/03 04:46:39;;;;;;;8.77;3.90;;;;;;;;;;4978918;28;20073;-56
2022/01/03 04:49:06;;;;;;;9.35;4.75;;;;;;;;;;4974960;28;20065;-53
2022/01/03 04:51:32;;;;;;;4.90;2.75;;;;;;;;;;4978161;28;20043;-55
2022/01/03 04:53:58;;;;;;;9.43;4.25;;;;;;;;;;4970500;28;20101;-54
2022/01/03 04:56:27;;;;;;;9.27;3.92;;;;;;;;;;4977641;28;20042;-55
2022/01/03 04:58:54;;;;;;;5.63;3.15;;;;;;;;;;4977975;28;20046;-55
2022/01/03 05:01:20;;;;;;;9.57;3.22;;;;;;;;;;4978327;28;20049;-55
2022/01/03 05:03:46;;;;;;;8.68;3.58;;;;;;;;;;4978224;28;20126;-56
2022/01/03 05:06:13;;;;;;;2.83;1.75;;;;;;;;;;4971959;28;20653;-53
2022/01/03 05:08:41;;;;;;;4.95;2.47;;;;;;;;;;4956464;28;20042;-55
2022/01/03 05:11:06;;;;;;;8.38;4.03;;;;;;;;;;4979257;28;20045;-55
2022/01/03 05:13:32;;;;;;;10.85;3.10;;;;;;;;;;4968822;28;20034;-54
2022/01/03 05:16:01;;;;;;;11.30;4.15;;;;;;;;;;4973796;28;20100;-56
2022/01/03 05:18:27;;;;;;;5.35;2.22;;;;;;;;;;4981200;28;20034;-56
2022/01/03 05:20:53;;;;;;;6.57;2.85;;;;;;;;;;4974904;28;20045;-54
2022/01/03 05:23:18;;;;;;;9.68;3.92;;;;;;;;;;4997075;28;20107;-54
2022/01/03 05:25:44;;;;;;;11.30;5.75;;;;;;;;;;4980039;28;20516;-53
2022/01/03 05:28:10;;;;;;;10.60;2.65;;;;;;;;;;4978977;28;20038;-56
2022/01/03 05:30:36;;;;;;;5.43;3.00;;;;;;;;;;4970539;28;20038;-54
2022/01/03 05:33:03;;;;;;;10.02;3.67;;;;;;;;;;4979909;28;20060;-54
2022/01/03 05:35:29;;;;;;;16.58;5.50;;;;;;;;;;4978980;28;20510;-54
2022/01/03 05:37:55;;;;;;;5.03;2.97;;;;;;;;;;4977587;28;20038;-55
2022/01/03 05:40:20;;;;;;;13.60;6.97;;;;;;;;;;4977852;28;20038;-55
2022/01/03 05:42:47;;;;;;;13.88;4.80;;;;;;;;;;4973576;28;20074;-56
2022/01/03 05:45:13;;;;;;;6.32;2.42;;;;;;;;;;4974425;28;20062;-56
2022/01/03 05:47:42;;;;;;;7.75;3.90;;;;;;;;;;4976636;28;20034;-53
2022/01/03 05:50:08;;;;;;;21.90;9.45;;;;;;;;;;4977514;28;20073;-52
2022/01/03 05:52:34;;;;;;;14.15;5.60;;;;;;;;;;4977106;28;20114;-54
2022/01/03 05:55:00;;;;;;;23.20;7.13;;;;;;;;;;4977891;28;20075;-55
2022/01/03 05:57:26;;;;;;;12.77;5.45;;;;;;;;;;4977453;28;20064;-56
2022/01/03 05:59:52;;;;;;;4.22;1.85;;;;;;;;;;4976766;28;20117;-55
2022/01/03 06:02:18;;;;;;;18.80;7.47;;;;;;;;;;4976619;28;20042;-56
2022/01/03 06:04:57;;;;;;;10.88;3.88;;;;;;;;;;4977207;28;20042;-55
2022/01/03 06:07:22;;;;;;;20.92;9.63;;;;;;;;;;4978633;28;20026;-54
2022/01/03 06:09:49;;;;;;;16.38;4.88;;;;;;;;;;4977987;28;20077;-56
2022/01/03 06:12:17;;;;;;;3.75;2.20;;;;;;;;;;4978379;28;20129;-56
2022/01/03 06:14:46;;;;;;;11.98;5.22;;;;;;;;;;4972128;28;20046;-56
2022/01/03 06:17:12;;;;;;;15.30;7.05;;;;;;;;;;4973922;28;20663;-54
2022/01/03 06:19:38;;;;;;;18.10;8.75;;;;;;;;;;4977048;28;20038;-55
2022/01/03 06:22:04;;;;;;;12.00;6.43;;;;;;;;;;4969808;28;20424;-54
2022/01/03 06:24:30;;;;;;;12.25;5.00;;;;;;;;;;4977258;28;20072;-55
2022/01/03 06:26:56;;;;;;;10.80;5.82;;;;;;;;;;4977225;28;20042;-55
2022/01/03 06:29:22;;;;;;;18.65;9.07;;;;;;;;;;4968446;28;20038;-55
2022/01/03 06:31:48;;;;;;;5.35;3.40;;;;;;;;;;4976542;28;20498;-54
2022/01/03 06:34:15;;;;;;;10.77;5.63;;;;;;;;;;4968865;28;20196;-56
2022/01/03 06:36:41;;;;;;;6.50;3.05;;;;;;;;;;4968710;28;20050;-54
2022/01/03 06:39:09;;;;;;;13.18;6.85;;;;;;;;;;4977610;28;20109;-54
2022/01/03 06:41:35;;;;;;;9.10;2.83;;;;;;;;;;4957702;28;20409;-56
2022/01/03 06:44:02;;;;;;;15.73;4.53;;;;;;;;;;4972447;28;20031;-55
2022/01/03 06:46:27;;;;;;;18.25;8.63;;;;;;;;;;4968488;28;20088;-55
2022/01/03 06:48:53;;;;;;;18.17;8.30;;;;;;;;;;4974919;28;20042;-55
2022/01/03 06:51:19;;;;;;;12.90;3.95;;;;;;;;;;4972729;28;20041;-54
2022/01/03 06:53:45;;;;;;;13.57;4.55;;;;;;;;;;4974609;28;20112;-55
2022/01/03 06:56:11;;;;;;;11.80;4.35;;;;;;;;;;4975795;28;20060;-54
2022/01/03 06:58:42;;;;;;;16.27;7.38;;;;;;;;;;4976016;28;20157;-55
2022/01/03 07:01:09;;;;;;;19.23;10.60;;;;;;;;;;4975009;28;20112;-55
2022/01/03 07:03:34;;;;;;;9.77;4.05;;;;;;;;;;4975413;28;20037;-55
2022/01/03 07:06:00;;;;;;;11.00;5.30;;;;;;;;;;4977149;28;20042;-55
2022/01/03 07:08:26;;;;;;;12.65;5.90;;;;;;;;;;4975357;28;20041;-52
2022/01/03 07:10:52;;;;;;;14.70;7.65;;;;;;;;;;4976497;28;20051;-55
2022/01/03 07:13:18;;;;;;;16.80;9.38;;;;;;;;;;4975407;28;20132;-54
2022/01/03 07:21:13;;;;;;;2.92;1.30;;;;;;;;;;4976088;28;20069;-53
2022/01/03 07:23:40;;;;;;;6.82;2.88;;;;;;;;;;4978170;28;20046;-56
2022/01/03 07:26:05;;;;;;;5.03;1.42;;;;;;;;;;4981449;28;20137;-53
2022/01/03 07:28:31;;;;;;;10.27;2.58;;;;;;;;;;4970656;28;20108;-56
2022/01/03 07:30:57;;;;;;;4.57;2.70;;;;;;;;;;4979912;28;20042;-55
2022/01/03 07:33:23;;;;;;;9.68;4.65;;;;;;;;;;4972122;28;20042;-55
2022/01/03 07:35:49;;;;;;;7.40;3.90;;;;;;;;;;4968811;28;20047;-55
2022/01/03 07:38:14;;;;;;;6.32;3.05;;;;;;;;;;4957788;28;20475;-55
2022/01/03 07:40:40;;;;;;;7.72;2.10;;;;;;;;;;4978764;28;20181;-55
2022/01/03 07:43:06;;;;;;;9.02;4.68;;;;;;;;;;4978467;28;20046;-55
2022/01/03 07:45:32;;;;;;;9.25;3.80;;;;;;;;;;4979405;28;20070;-55
2022/01/03 07:47:58;;;;;;;5.38;2.20;;;;;;;;;;4978756;28;20125;-56
2022/01/03 07:50:24;;;;;;;12.80;5.85;;;;;;;;;;4980629;28;20049;-54
2022/01/03 07:52:50;;;;;;;6.15;2.65;;;;;;;;;;4980241;28;20042;-54
2022/01/03 07:55:16;;;;;;;9.48;3.90;;;;;;;;;;4980773;28;20929;-54
2022/01/03 07:57:42;;;;;;;9.57;4.25;;;;;;;;;;4978478;28;20058;-55
2022/01/03 08:00:10;;;;;;;15.55;7.50;;;;;;;;;;4980682;28;20047;-55
2022/01/03 08:02:38;;;;;;;13.48;6.55;;;;;;;;;;4971123;28;20116;-55
2022/01/03 08:05:04;;;;;;;13.98;6.63;;;;;;;;;;4972920;28;20185;-55
2022/01/03 08:07:30;;;;;;;14.60;5.80;;;;;;;;;;4969156;28;20038;-55
2022/01/03 08:09:56;;;;;;;13.23;6.53;;;;;;;;;;4970065;28;21551;-53
2022/01/03 08:12:22;;;;;;;8.93;4.78;;;;;;;;;;4970061;28;20105;-54
2022/01/03 08:14:48;;;;;;;12.23;5.60;;;;;;;;;;4971951;28;20038;-55
2022/01/03 08:17:13;;;;;;;6.68;2.97;;;;;;;;;;4980013;28;20108;-56
2022/01/03 08:19:39;;;;;;;11.65;5.53;;;;;;;;;;4981019;28;21859;-54
2022/01/03 08:22:05;;;;;;;4.95;2.17;;;;;;;;;;4981110;28;20050;-53
2022/01/03 08:24:31;;;;;;;4.18;2.05;;;;;;;;;;4979791;28;20082;-55
2022/01/03 08:26:57;;;;;;;10.98;4.63;;;;;;;;;;4980229;28;20071;-54
2022/01/03 08:29:23;;;;;;;9.23;4.65;;;;;;;;;;4978052;28;20034;-56
2022/01/03 08:31:49;;;;;;;6.53;3.00;;;;;;;;;;4975641;28;20046;-55
2022/01/03 08:34:15;;;;;;;12.10;3.17;;;;;;;;;;4974969;28;20046;-55
2022/01/03 08:36:41;;;;;;;15.95;6.07;;;;;;;;;;4978836;28;20038;-54
2022/01/03 08:39:09;;;;;;;14.93;5.82;;;;;;;;;;4979247;28;20039;-55
2022/01/03 08:41:35;;;;;;;17.00;4.70;;;;;;;;;;4978961;28;20125;-56
2022/01/03 08:44:00;;;;;;;11.50;3.90;;;;;;;;;;4978210;28;20446;-56
2022/01/03 08:46:26;;;;;;;14.25;6.13;;;;;;;;;;4978525;28;20153;-56
2022/01/03 08:48:53;;;;;;;13.70;4.82;;;;;;;;;;4979444;28;20427;-53
2022/01/03 08:51:18;;;;;;;6.70;3.05;;;;;;;;;;4978411;28;20109;-56
2022/01/03 08:53:44;;;;;;;5.43;2.70;;;;;;;;;;4979099;28;20141;-57
2022/01/03 08:56:10;;;;;;;8.13;3.72;;;;;;;;;;4979512;28;20050;-55
2022/01/03 08:58:36;;;;;;;18.30;4.15;;;;;;;;;;4976320;28;20086;-57
2022/01/03 09:01:02;;;;;;;22.05;6.38;;;;;;;;;;4979054;28;20058;-57
2022/01/03 09:03:27;;;;;;;9.20;3.95;;;;;;;;;;4976972;28;20174;-56
2022/01/03 09:05:54;;;;;;;16.77;7.85;;;;;;;;;;4978836;28;20038;-56
2022/01/03 09:08:22;;;;;;;10.50;4.18;;;;;;;;;;4977811;28;20112;-57
2022/01/03 09:10:49;;;;;;;16.95;7.57;;;;;;;;;;4966334;28;20058;-57
2022/01/03 09:13:15;;;;;;;16.70;5.15;;;;;;;;;;4979139;28;20070;-56
2022/01/03 09:15:44;;;;;;;10.32;4.47;;;;;;;;;;4978017;28;20190;-56
2022/01/03 09:18:13;;;;;;;26.45;6.97;;;;;;;;;;4977049;28;21088;-57
2022/01/03 09:20:39;;;;;;;18.20;5.60;;;;;;;;;;4966637;28;20503;-56
2022/01/03 09:23:14;;;;;;;15.88;6.75;;;;;;;;;;4970468;28;20050;-56
2022/01/03 09:30:53;;;;;;;6.20;2.55;;;;;;;;;;4978667;28;20045;-53
2022/01/03 09:33:19;;;;;;;10.82;3.90;;;;;;;;;;4971147;28;20502;-56
2022/01/03 09:35:45;;;;;;;8.88;2.67;;;;;;;;;;4980893;28;20086;-56
2022/01/03 09:38:11;;;;;;;6.97;2.70;;;;;;;;;;4981741;28;20042;-56
2022/01/03 09:40:39;;;;;;;12.18;3.92;;;;;;;;;;4972567;28;20046;-56
2022/01/03 09:43:07;;;;;;;14.27;5.35;;;;;;;;;;4981786;28;20531;-55
2022/01/03 09:45:33;;;;;;;11.45;4.78;;;;;;;;;;4979334;28;20432;-56
2022/01/03 09:48:00;;;;;;;11.30;4.07;;;;;;;;;;4980663;28;20108;-56
2022/01/03 09:50:26;;;;;;;3.35;1.48;;;;;;;;;;5009705;28;20074;-56
2022/01/03 09:52:52;;;;;;;7.85;3.33;;;;;;;;;;4977383;28;20052;-55
2022/01/03 09:55:19;;;;;;;9.10;3.65;;;;;;;;;;4977060;28;20045;-55
2022/01/03 09:57:46;;;;;;;4.13;2.45;;;;;;;;;;4970413;28;20117;-55
2022/01/03 10:00:16;;;;;;;11.60;4.50;;;;;;;;;;4970619;28;20042;-55
2022/01/03 10:02:44;;;;;;;15.50;5.78;;;;;;;;;;4977168;28;20773;-54
2022/01/03 10:05:10;;;;;;;10.68;4.47;;;;;;;;;;4976653;28;20034;-55
2022/01/03 10:07:38;;;;;;;10.48;4.32;;;;;;;;;;4976486;28;20062;-55
2022/01/03 10:10:04;;;;;;;12.85;1.90;;;;;;;;;;4977596;28;20518;-55
2022/01/03 10:12:30;;;;;;;17.45;4.25;;;;;;;;;;4977696;28;20054;-54
2022/01/03 10:14:58;;;;;;;13.90;5.32;;;;;;;;;;4977378;28;20093;-56
2022/01/03 10:17:24;;;;;;;13.77;3.55;;;;;;;;;;4975948;28;20084;-54
2022/01/03 10:19:53;;;;;;;25.95;5.90;;;;;;;;;;4994871;28;20538;-52
2022/01/03 10:22:23;;;;;;;6.55;2.08;;;;;;;;;;4968738;28;20190;-55
2022/01/03 10:24:49;;;;;;;23.20;5.82;;;;;;;;;;4978174;28;20495;-52
2022/01/03 10:27:15;;;;;;;8.85;3.38;;;;;;;;;;4971030;28;20374;-55
2022/01/03 10:29:41;;;;;;;5.75;2.90;;;;;;;;;;4977772;28;20514;-53
2022/01/03 10:32:10;;;;;;;12.88;3.80;;;;;;;;;;4976668;28;20062;-55
2022/01/03 10:34:36;;;;;;;8.20;3.45;;;;;;;;;;4976048;28;20053;-55
2022/01/03 10:37:09;;;;;;;12.70;4.72;;;;;;;;;;4977044;28;20423;-55
2022/01/03 10:39:35;;;;;;;31.67;5.72;;;;;;;;;;4976402;28;20038;-53
2022/01/03 10:42:17;;;;;;;15.95;4.35;;;;;;;;;;4969873;28;20050;-54
2022/01/03 10:44:44;;;;;;;4.97;2.45;;;;;;;;;;4976913;28;20053;-55
2022/01/03 10:47:18;;;;;;;9.60;2.70;;;;;;;;;;4976853;28;20489;-55
2022/01/03 10:49:45;;;;;;;3.97;1.70;;;;;;;;;;4975809;28;20680;-54
2022/01/03 10:52:12;;;;;;;6.00;2.75;;;;;;;;;;4969371;28;20093;-55
2022/01/03 10:54:37;;;;;;;9.93;3.65;;;;;;;;;;4977575;28;20085;-52
2022/01/03 10:57:03;;;;;;;4.65;1.73;;;;;;;;;;4969086;28;20142;-55
2022/01/03 10:59:31;;;;;;;10.90;3.28;;;;;;;;;;4978039;28;20050;-55
2022/01/03 11:01:56;;;;;;;9.05;2.63;;;;;;;;;;4976100;28;20373;-56
2022/01/03 11:04:28;;;;;;;6.72;2.40;;;;;;;;;;4981335;28;20045;-55
2022/01/03 11:13:16;;;;;;;12.50;2.35;;;;;;;;;;4979922;28;20049;-53
2022/01/03 11:15:55;;;;;;;8.95;3.50;;;;;;;;;;4980103;28;20487;-54
2022/01/03 11:18:22;;;;;;;12.70;4.38;;;;;;;;;;4978893;28;20042;-53
2022/01/03 11:21:01;;;;;;;12.02;3.38;;;;;;;;;;4980641;28;20037;-53
2022/01/03 11:23:27;;;;;;;8.90;3.28;;;;;;;;;;4972475;28;20031;-53
2022/01/03 11:25:54;;;;;;;16.23;5.18;;;;;;;;;;4972635;28;20054;-53
2022/01/03 11:28:25;;;;;;;12.00;4.22;;;;;;;;;;4970813;28;20126;-53
2022/01/03 11:30:52;;;;;;;10.40;3.25;;;;;;;;;;4976056;28;20043;-55
2022/01/03 11:33:19;;;;;;;9.30;2.22;;;;;;;;;;4975536;28;20034;-54
2022/01/03 11:35:49;;;;;;;5.30;2.20;;;;;;;;;;4981337;28;20403;-54
2022/01/03 11:38:18;;;;;;;10.07;2.83;;;;;;;;;;4981482;28;20054;-55
2022/01/03 11:40:44;;;;;;;3.78;1.77;;;;;;;;;;4980745;28;20100;-56
2022/01/03 11:43:10;;;;;;;7.20;1.88;;;;;;;;;;4979544;28;21845;-55
2022/01/03 11:45:36;;;;;;;11.25;3.30;;;;;;;;;;4979287;28;20065;-56
2022/01/03 11:48:02;;;;;;;7.78;2.65;;;;;;;;;;4979837;28;20047;-55
2022/01/03 11:50:28;;;;;;;12.13;3.25;;;;;;;;;;4979670;28;20046;-56
2022/01/03 11:52:54;;;;;;;9.70;3.10;;;;;;;;;;4980853;28;20046;-56
2022/01/03 11:55:22;;;;;;;7.43;2.85;;;;;;;;;;4976804;28;20030;-55
2022/01/03 12:05:55;;;;;;;9.40;3.33;;;;;;;;;;4979909;28;20062;-53
2022/01/03 12:08:31;;;;;;;5.30;2.47;;;;;;;;;;4970867;28;20163;-53
2022/01/03 12:11:00;;;;;;;36.13;3.58;;;;;;;;;;4972900;28;20050;-53
2022/01/03 12:13:44;;;;;;;22.00;4.43;;;;;;;;;;4969835;28;20042;-55
2022/01/03 12:16:10;;;;;;;10.60;3.80;;;;;;;;;;4968167;28;20042;-54
2022/01/03 12:18:36;;;;;;;11.30;3.65;;;;;;;;;;4978520;28;20621;-53
2022/01/03 12:21:02;;;;;;;6.88;2.38;;;;;;;;;;4980289;28;20870;-54
2022/01/03 12:23:41;;;;;;;21.40;3.80;;;;;;;;;;4979844;28;20065;-55
2022/01/03 12:26:14;;;;;;;26.00;3.83;;;;;;;;;;4967831;28;20183;-54
2022/01/03 12:28:58;;;;;;;30.35;2.92;;;;;;;;;;4978950;28;20602;-52
2022/01/03 12:31:24;;;;;;;10.40;2.58;;;;;;;;;;4979493;28;20065;-54
2022/01/03 12:34:25;;;;;;;15.75;3.22;;;;;;;;;;4979453;28;20046;-53
2022/01/03 12:37:29;;;;;;;14.07;3.28;;;;;;;;;;4963307;28;20092;-55
2022/01/03 12:40:04;;;;;;;11.20;4.28;;;;;;;;;;4956790;28;20042;-55
2022/01/03 12:42:54;;;;;;;14.70;4.22;;;;;;;;;;4955470;28;20070;-54
2022/01/03 12:45:32;;;;;;;12.35;3.90;;;;;;;;;;4971317;28;20519;-55
2022/01/03 12:48:15;;;;;;;15.10;4.93;;;;;;;;;;4974643;28;20048;-53
2022/01/03 12:50:40;;;;;;;4.70;2.08;;;;;;;;;;4980276;28;20042;-55
2022/01/03 12:53:07;;;;;;;4.18;2.05;;;;;;;;;;4980119;28;20469;-54
2022/01/03 12:55:41;;;;;;;8.32;2.63;;;;;;;;;;4980714;28;20046;-55
2022/01/03 12:58:16;;;;;;;15.77;3.85;;;;;;;;;;4980399;28;20125;-55
2022/01/03 13:00:49;;;;;;;23.40;4.30;;;;;;;;;;4976488;28;20047;-55
2022/01/03 13:03:25;;;;;;;16.33;5.43;;;;;;;;;;4975344;28;20731;-55
2022/01/03 13:06:13;;;;;;;11.30;4.00;;;;;;;;;;4979923;28;20109;-55
2022/01/03 13:08:48;;;;;;;27.65;4.25;;;;;;;;;;4979075;28;20046;-54
2022/01/03 13:11:18;;;;;;;16.27;4.07;;;;;;;;;;4979878;28;20034;-57
2022/01/03 13:13:47;;;;;;;10.93;4.47;;;;;;;;;;4976360;28;20042;-56
2022/01/03 13:16:20;;;;;;;5.95;2.40;;;;;;;;;;4977766;28;20046;-56
2022/01/03 13:18:54;;;;;;;16.73;3.78;;;;;;;;;;4963975;28;20066;-56
2022/01/03 13:21:20;;;;;;;4.18;2.65;;;;;;;;;;4978951;28;20034;-56
2022/01/03 13:23:52;;;;;;;5.22;2.88;;;;;;;;;;4971524;28;20065;-55
2022/01/03 13:26:20;;;;;;;2.45;1.85;;;;;;;;;;4981522;28;20166;-55
2022/01/03 13:28:52;;;;;;;2.55;1.52;;;;;;;;;;4982751;28;20038;-55
2022/01/03 13:31:18;;;;;;;8.45;3.83;;;;;;;;;;4978770;28;20155;-55
2022/01/03 13:33:45;;;;;;;5.38;3.25;;;;;;;;;;4971397;28;20073;-53
2022/01/03 13:36:18;;;;;;;12.65;2.60;;;;;;;;;;4979267;28;20054;-53
2022/01/03 13:38:44;;;;;;;3.30;1.63;;;;;;;;;;4971109;28;20041;-55
2022/01/03 13:41:14;;;;;;;13.57;2.42;;;;;;;;;;4981065;28;20121;-56
2022/01/03 13:43:43;;;;;;;11.85;4.07;;;;;;;;;;4967873;28;20049;-57
2022/01/03 13:51:20;;;;;;;9.40;3.42;;;;;;;;;;4977521;28;20076;-57
2022/01/03 13:53:52;;;;;;;7.18;2.45;;;;;;;;;;4977410;28;20492;-55
2022/01/03 13:56:18;;;;;;;1.92;1.25;;;;;;;;;;4970226;28;20078;-57
2022/01/03 13:58:45;;;;;;;10.80;2.97;;;;;;;;;;4963543;28;20484;-54
2022/01/03 14:01:11;;;;;;;13.75;5.07;;;;;;;;;;4972175;28;20058;-56
2022/01/03 14:03:39;;;;;;;8.93;3.15;;;;;;;;;;4972167;28;20070;-55
2022/01/03 14:06:31;;;;;;;10.57;3.33;;;;;;;;;;4969212;28;20038;-55
2022/01/03 14:08:57;;;;;;;4.65;1.92;;;;;;;;;;4976631;28;20132;-56
2022/01/03 14:11:25;;;;;;;15.60;4.30;;;;;;;;;;4976632;28;20031;-55
2022/01/03 14:13:51;;;;;;;8.25;2.05;;;;;;;;;;4976902;28;20096;-55
2022/01/03 14:16:17;;;;;;;11.27;4.30;;;;;;;;;;4976848;28;20128;-56
2022/01/03 14:18:50;;;;;;;5.72;2.05;;;;;;;;;;4978036;28;20134;-53
2022/01/03 14:21:19;;;;;;;36.58;6.90;;;;;;;;;;4978391;28;20034;-53
2022/01/03 14:23:46;;;;;;;6.93;3.08;;;;;;;;;;4977889;28;20164;-56
2022/01/03 14:26:12;;;;;;;65.13;7.20;;;;;;;;;;4980131;28;20050;-53
2022/01/03 14:28:39;;;;;;;3.65;2.10;;;;;;;;;;4977799;28;20454;-56
2022/01/03 14:31:05;;;;;;;5.78;3.00;;;;;;;;;;4977469;28;20858;-55
2022/01/03 14:33:32;;;;;;;3.35;1.95;;;;;;;;;;4975995;28;20053;-56
2022/01/03 14:35:57;;;;;;;26.50;5.90;;;;;;;;;;4977525;28;20104;-52
2022/01/03 14:38:27;;;;;;;16.85;2.47;;;;;;;;;;4969274;28;20034;-55
2022/01/03 14:40:54;;;;;;;22.13;4.30;;;;;;;;;;4978334;28;20046;-54
2022/01/03 14:43:27;;;;;;;7.07;3.05;;;;;;;;;;4976265;28;20065;-52
2022/01/03 14:45:52;;;;;;;;;;;;;;;;;;4978014;28;20057;-55
2022/01/03 14:48:18;;;;;;;;;;;;;;;;;;4977081;28;20314;-56
2022/01/03 14:50:43;;;;;;;;;;;;;;;;;;4978140;28;19933;-54
2022/01/03 14:53:09;;;;;;;;;;;;;;;;;;4976506;28;19929;-56
2022/01/03 14:55:35;;;;;;;;;;;;;;;;;;4977730;28;20395;-57
2022/01/03 14:58:01;;;;;;;;;;;;;;;;;;4976784;28;19929;-56
2022/01/03 15:00:27;;;;;;;;;;;;;;;;;;4975778;28;19949;-56
2022/01/03 15:02:52;;;;;;;;;;;;;;;;;;4962170;28;19993;-55
2022/01/03 15:05:18;;;;;;;;;;;;;;;;;;4976711;28;20013;-56
2022/01/03 15:07:43;;;;;;;;;;;;;;;;;;4976831;28;19972;-55
2022/01/03 15:10:08;;;;;;;;;;;;;;;;;;4977435;28;20000;-55
2022/01/03 15:12:34;;;;;;;;;;;;;;;;;;4976508;28;20338;-55
2022/01/03 15:14:59;;;;;;;;;;;;;;;;;;4976596;28;19937;-57
2022/01/03 15:17:25;;;;;;;;;;;;;;;;;;4976539;28;19980;-57